createdAt,value
2018-11-10T00:01:59.952Z,19.97
2018-11-10T00:04:31.558Z,21.67
2018-11-10T00:06:59.313Z,24.70
2018-11-10T00:09:27.040Z,20.97
2018-11-10T00:11:54.857Z,21.80
2018-11-10T00:14:22.578Z,21.33
2018-11-10T00:16:50.292Z,18.87
2018-11-10T00:19:18.067Z,20.80
2018-11-10T00:21:45.807Z,23.67
2018-11-10T00:24:13.558Z,18.77
2018-11-10T00:26:41.298Z,18.67
2018-11-10T00:29:09.015Z,19.53
2018-11-10T00:31:36.778Z,18.43
2018-11-10T00:34:05.011Z,19.93
2018-11-10T00:36:32.767Z,16.67
2018-11-10T00:39:00.539Z,19.97
2018-11-10T00:41:28.299Z,19.97
2018-11-10T00:43:56.033Z,15.70
2018-11-10T00:46:23.854Z,18.50
2018-11-10T00:48:51.590Z,17.33
2018-11-10T00:51:19.374Z,18.13
2018-11-10T00:53:47.126Z,15.37
2018-11-10T00:56:14.879Z,14.97
2018-11-10T00:58:42.630Z,15.97
2018-11-10T01:01:10.355Z,12.90
2018-11-10T01:03:38.195Z,17.53
2018-11-10T01:06:05.951Z,12.93
2018-11-10T01:08:33.683Z,11.77
2018-11-10T01:11:01.397Z,14.07
2018-11-10T01:13:29.203Z,16.00
2018-11-10T01:15:56.929Z,14.27
2018-11-10T01:18:24.651Z,15.57
2018-11-10T01:20:52.394Z,15.17
2018-11-10T01:23:20.123Z,13.87
2018-11-10T01:25:47.867Z,14.93
2018-11-10T01:28:15.610Z,18.27
2018-11-10T01:30:43.347Z,18.30
2018-11-10T01:33:11.088Z,17.43
2018-11-10T01:35:38.826Z,16.27
2018-11-10T01:38:06.614Z,14.90
2018-11-10T01:40:34.351Z,17.77
2018-11-10T01:43:02.103Z,17.90
2018-11-10T01:45:29.846Z,16.30
2018-11-10T01:47:57.594Z,14.47
2018-11-10T01:50:25.310Z,14.63
2018-11-10T01:52:53.026Z,16.47
2018-11-10T01:55:20.786Z,14.73
2018-11-10T01:57:48.521Z,12.10
2018-11-10T02:00:17.441Z,16.30
2018-11-10T02:02:45.913Z,15.03
2018-11-10T02:05:14.070Z,15.13
2018-11-10T02:07:41.801Z,15.17
2018-11-10T02:10:10.443Z,20.13
2018-11-10T02:12:38.236Z,18.97
2018-11-10T02:15:08.233Z,20.20
2018-11-10T02:17:35.964Z,14.70
2018-11-10T02:20:04.499Z,17.90
2018-11-10T02:22:32.249Z,15.43
2018-11-10T02:25:00.070Z,18.63
2018-11-10T02:27:27.857Z,19.73
2018-11-10T02:29:55.641Z,21.17
2018-11-10T02:32:23.387Z,26.33
2018-11-10T02:34:51.849Z,18.70
2018-11-10T02:37:19.591Z,18.73
2018-11-10T02:39:47.325Z,16.33
2018-11-10T02:42:15.074Z,14.27
2018-11-10T02:44:42.798Z,14.07
2018-11-10T02:47:10.515Z,18.47
2018-11-10T02:49:38.242Z,19.43
2018-11-10T02:52:05.998Z,18.17
2018-11-10T02:54:33.734Z,16.57
2018-11-10T02:57:01.466Z,17.00
2018-11-10T02:59:29.209Z,15.43
2018-11-10T03:01:56.934Z,16.53
2018-11-10T03:04:24.681Z,15.07
2018-11-10T03:06:52.415Z,15.03
2018-11-10T03:09:20.146Z,13.53
2018-11-10T03:11:47.886Z,14.80
2018-11-10T03:14:15.684Z,13.57
2018-11-10T03:16:43.415Z,14.20
2018-11-10T03:19:11.152Z,14.40
2018-11-10T03:21:38.886Z,17.00
2018-11-10T03:24:06.611Z,15.30
2018-11-10T03:26:34.338Z,16.87
2018-11-10T03:29:02.058Z,18.57
2018-11-10T03:31:29.786Z,15.20
2018-11-10T03:33:57.504Z,14.93
2018-11-10T03:36:25.256Z,13.93
2018-11-10T03:38:52.990Z,15.80
2018-11-10T03:41:20.760Z,22.47
2018-11-10T03:43:48.486Z,13.23
2018-11-10T03:46:16.263Z,12.53
2018-11-10T03:48:43.991Z,12.60
2018-11-10T03:51:11.782Z,13.57
2018-11-10T03:53:39.979Z,12.40
2018-11-10T03:56:08.037Z,16.93
2018-11-10T03:58:35.818Z,15.10
2018-11-10T04:01:03.655Z,15.67
2018-11-10T04:03:31.467Z,12.10
2018-11-10T04:05:59.211Z,11.77
2018-11-10T04:08:26.925Z,17.07
2018-11-10T04:10:54.656Z,16.53
2018-11-10T04:13:22.406Z,12.97
2018-11-10T04:15:50.126Z,13.40
2018-11-10T04:18:17.838Z,14.50
2018-11-10T04:20:45.567Z,14.37
2018-11-10T04:23:13.279Z,14.70
2018-11-10T04:25:41.011Z,17.17
2018-11-10T04:28:08.735Z,13.90
2018-11-10T04:30:36.460Z,16.40
2018-11-10T04:33:04.474Z,17.03
2018-11-10T04:35:32.182Z,18.93
2018-11-10T04:37:59.918Z,15.40
2018-11-10T04:40:27.645Z,15.17
2018-11-10T04:42:55.417Z,15.47
2018-11-10T04:45:23.137Z,16.00
2018-11-10T04:47:50.902Z,17.87
2018-11-10T04:50:18.880Z,13.57
2018-11-10T04:52:46.600Z,17.77
2018-11-10T04:55:14.327Z,19.03
2018-11-10T04:57:42.054Z,16.27
2018-11-10T05:00:12.463Z,20.37
2018-11-10T05:02:40.406Z,15.77
2018-11-10T05:05:08.266Z,18.27
2018-11-10T05:07:36.090Z,15.60
2018-11-10T05:10:03.946Z,20.27
2018-11-10T05:12:31.677Z,17.00
2018-11-10T05:14:59.419Z,17.87
2018-11-10T05:17:27.142Z,15.03
2018-11-10T05:19:54.868Z,24.37
2018-11-10T05:22:22.918Z,21.63
2018-11-10T05:24:50.654Z,24.67
2018-11-10T05:27:18.401Z,19.70
2018-11-10T05:29:46.135Z,19.00
2018-11-10T05:32:13.878Z,19.20
2018-11-10T05:34:41.604Z,18.30
2018-11-10T05:37:09.343Z,16.33
2018-11-10T05:39:37.058Z,16.70
2018-11-10T05:42:04.806Z,21.90
2018-11-10T05:44:32.524Z,18.07
2018-11-10T05:47:00.246Z,20.80
2018-11-10T05:49:27.962Z,17.30
2018-11-10T05:51:55.698Z,15.47
2018-11-10T05:54:23.402Z,16.97
2018-11-10T05:56:51.158Z,19.90
2018-11-10T05:59:18.930Z,22.23
2018-11-10T06:01:46.692Z,23.77
2018-11-10T06:04:14.399Z,23.83
2018-11-10T06:06:42.120Z,22.53
2018-11-10T06:09:10.966Z,27.57
2018-11-10T06:11:39.982Z,30.57
2018-11-10T06:14:07.893Z,31.10
2018-11-10T06:16:35.856Z,30.80
2018-11-10T06:19:03.599Z,29.30
2018-11-10T06:21:31.330Z,27.13
2018-11-10T06:23:59.059Z,27.37
2018-11-10T06:26:27.319Z,24.37
2018-11-10T06:28:55.055Z,24.73
2018-11-10T06:31:22.771Z,26.63
2018-11-10T06:33:50.554Z,22.93
2018-11-10T06:36:18.481Z,24.17
2018-11-10T06:38:46.234Z,25.07
2018-11-10T06:41:13.975Z,24.40
2018-11-10T06:43:41.724Z,20.10
2018-11-10T06:46:09.443Z,21.57
2018-11-10T06:48:37.194Z,22.17
2018-11-10T06:51:05.015Z,22.50
2018-11-10T06:53:32.743Z,24.23
2018-11-10T06:56:00.447Z,25.03
2018-11-10T06:58:28.178Z,26.10
2018-11-10T07:00:55.944Z,26.07
2018-11-10T07:03:23.715Z,27.40
2018-11-10T07:05:51.454Z,26.10
2018-11-10T07:08:19.910Z,29.67
2018-11-10T07:10:48.081Z,27.53
2018-11-10T07:13:15.836Z,30.10
2018-11-10T07:15:43.610Z,29.43
2018-11-10T07:18:11.446Z,31.87
2018-11-10T07:20:39.105Z,30.40
2018-11-10T07:23:06.843Z,36.10
2018-11-10T07:25:34.607Z,33.47
2018-11-10T07:28:02.364Z,37.73
2018-11-10T07:30:30.099Z,36.20
2018-11-10T07:32:57.843Z,46.53
2018-11-10T07:35:25.587Z,36.07
2018-11-10T07:37:53.319Z,35.53
2018-11-10T07:40:21.081Z,38.10
2018-11-10T07:42:48.886Z,42.43
2018-11-10T07:45:16.621Z,43.27
2018-11-10T07:47:45.277Z,38.00
2018-11-10T07:50:13.028Z,43.53
2018-11-10T07:52:41.403Z,42.87
2018-11-10T07:55:10.630Z,38.63
2018-11-10T07:57:38.377Z,34.37
2018-11-10T08:00:08.926Z,31.80
2018-11-10T08:02:36.662Z,39.23
2018-11-10T08:05:04.923Z,37.73
2018-11-10T08:07:32.716Z,39.93
2018-11-10T08:10:00.518Z,40.07
2018-11-10T08:12:28.229Z,37.23
2018-11-10T08:14:55.966Z,44.40
2018-11-10T08:17:23.692Z,46.63
2018-11-10T08:19:51.442Z,50.33
2018-11-10T08:22:19.212Z,51.00
2018-11-10T08:24:46.940Z,49.50
2018-11-10T08:27:14.679Z,49.33
2018-11-10T08:29:42.398Z,47.33
2018-11-10T08:32:10.123Z,39.83
2018-11-10T08:34:37.866Z,48.73
2018-11-10T08:37:05.682Z,46.27
2018-11-10T08:39:33.439Z,48.70
2018-11-10T08:42:01.203Z,49.73
2018-11-10T08:44:28.930Z,46.30
2018-11-10T08:46:56.698Z,45.47
2018-11-10T08:49:24.517Z,42.27
2018-11-10T08:51:53.171Z,45.57
2018-11-10T08:54:20.947Z,49.57
2018-11-10T08:56:48.741Z,47.40
2018-11-10T08:59:16.549Z,47.93
2018-11-10T09:01:44.290Z,45.50
2018-11-10T09:04:12.027Z,46.93
2018-11-10T09:06:39.783Z,42.67
2018-11-10T09:09:09.022Z,40.50
2018-11-10T09:11:36.944Z,39.97
2018-11-10T09:14:04.925Z,42.10
2018-11-10T09:16:32.671Z,36.17
2018-11-10T09:19:00.415Z,37.07
2018-11-10T09:21:28.259Z,32.77
2018-11-10T09:23:55.928Z,39.67
2018-11-10T09:26:24.198Z,34.50
2018-11-10T09:28:51.953Z,30.87
2018-11-10T09:31:19.695Z,28.97
2018-11-10T09:33:47.425Z,30.33
2018-11-10T09:36:15.168Z,37.60
2018-11-10T09:38:42.955Z,40.73
2018-11-10T09:41:10.722Z,37.70
2018-11-10T09:43:38.447Z,38.33
2018-11-10T09:46:06.402Z,38.83
2018-11-10T09:48:34.186Z,38.00
2018-11-10T09:51:02.006Z,29.03
2018-11-10T09:53:29.769Z,29.17
2018-11-10T09:55:57.534Z,27.37
2018-11-10T09:58:25.350Z,26.93
2018-11-10T10:00:53.148Z,31.57
2018-11-10T10:03:20.891Z,30.50
2018-11-10T10:05:48.643Z,32.70
2018-11-10T10:08:16.397Z,33.13
2018-11-10T10:10:44.158Z,32.07
2018-11-10T10:13:11.919Z,32.43
2018-11-10T10:15:39.654Z,31.90
2018-11-10T10:18:07.417Z,30.80
2018-11-10T10:20:35.183Z,35.10
2018-11-10T10:23:02.971Z,38.07
2018-11-10T10:25:30.710Z,34.50
2018-11-10T10:27:58.463Z,32.23
2018-11-10T10:30:26.499Z,37.53
2018-11-10T10:32:54.266Z,37.63
2018-11-10T10:35:22.162Z,40.93
2018-11-10T10:37:50.634Z,37.50
2018-11-10T10:40:18.568Z,42.83
2018-11-10T10:42:46.892Z,40.33
2018-11-10T10:45:16.114Z,29.20
2018-11-10T10:47:44.238Z,39.50
2018-11-10T10:50:15.231Z,36.23
2018-11-10T10:52:43.009Z,36.13
2018-11-10T10:55:12.866Z,33.30
2018-11-10T10:57:40.926Z,36.07
2018-11-10T11:00:15.879Z,32.33
2018-11-10T11:02:49.123Z,27.70
2018-11-10T11:05:23.172Z,30.60
2018-11-10T11:07:51.049Z,24.97
2018-11-10T11:10:18.922Z,36.90
2018-11-10T11:12:46.641Z,30.17
2018-11-10T11:15:14.415Z,30.07
2018-11-10T11:17:42.132Z,27.73
2018-11-10T11:20:10.159Z,28.17
2018-11-10T11:22:37.899Z,28.47
2018-11-10T11:25:05.832Z,27.67
2018-11-10T11:27:33.597Z,28.13
2018-11-10T11:30:01.822Z,28.20
2018-11-10T11:32:29.558Z,28.80
2018-11-10T11:34:57.308Z,27.40
2018-11-10T11:37:25.052Z,30.10
2018-11-10T11:39:52.827Z,28.87
2018-11-10T11:42:21.862Z,31.70
2018-11-10T11:44:49.610Z,27.30
2018-11-10T11:47:17.382Z,33.93
2018-11-10T11:49:45.182Z,27.33
2018-11-10T11:52:12.897Z,26.47
2018-11-10T11:54:40.706Z,31.87
2018-11-10T11:57:08.443Z,32.73
2018-11-10T11:59:36.174Z,30.63
2018-11-10T12:02:04.048Z,28.43
2018-11-10T12:04:31.828Z,27.07
2018-11-10T12:06:59.594Z,28.30
2018-11-10T12:09:27.410Z,26.90
2018-11-10T12:11:55.195Z,25.73
2018-11-10T12:14:22.910Z,25.23
2018-11-10T12:16:50.736Z,27.63
2018-11-10T12:19:18.496Z,36.87
2018-11-10T12:21:46.284Z,27.50
2018-11-10T12:24:14.016Z,25.20
2018-11-10T12:26:41.776Z,26.57
2018-11-10T12:29:09.591Z,24.70
2018-11-10T12:31:37.391Z,27.07
2018-11-10T12:34:05.622Z,23.80
2018-11-10T12:36:33.418Z,22.77
2018-11-10T12:39:01.168Z,24.10
2018-11-10T12:41:28.907Z,24.07
2018-11-10T12:43:56.674Z,22.47
2018-11-10T12:46:24.424Z,20.77
2018-11-10T12:48:52.162Z,23.83
2018-11-10T12:51:19.913Z,22.27
2018-11-10T12:53:47.666Z,20.80
2018-11-10T12:56:15.403Z,22.50
2018-11-10T12:58:43.143Z,23.07
2018-11-10T13:01:10.911Z,19.53
2018-11-10T13:03:38.633Z,20.20
2018-11-10T13:06:06.500Z,22.13
2018-11-10T13:08:34.271Z,20.30
2018-11-10T13:11:02.096Z,19.87
2018-11-10T13:13:29.811Z,19.90
2018-11-10T13:15:57.828Z,21.67
2018-11-10T13:18:25.588Z,19.00
2018-11-10T13:20:53.375Z,19.50
2018-11-10T13:23:21.081Z,21.47
2018-11-10T13:25:48.840Z,20.30
2018-11-10T13:28:16.606Z,18.10
2018-11-10T13:30:44.393Z,19.23
2018-11-10T13:33:12.126Z,20.53
2018-11-10T13:35:39.915Z,22.70
2018-11-10T13:38:07.660Z,17.60
2018-11-10T13:40:35.417Z,17.97
2018-11-10T13:43:03.199Z,17.50
2018-11-10T13:45:30.951Z,17.67
2018-11-10T13:47:58.691Z,21.90
2018-11-10T13:50:26.453Z,18.33
2018-11-10T13:52:54.393Z,21.17
2018-11-10T13:55:22.013Z,19.27
2018-11-10T13:57:49.777Z,21.73
2018-11-10T14:00:18.344Z,27.87
2018-11-10T14:02:46.125Z,20.03
2018-11-10T14:05:14.411Z,24.67
2018-11-10T14:07:42.222Z,21.03
2018-11-10T14:10:11.757Z,21.43
2018-11-10T14:12:40.280Z,19.73
2018-11-10T14:15:08.113Z,18.87
2018-11-10T14:17:35.837Z,19.97
2018-11-10T14:20:04.431Z,19.37
2018-11-10T14:22:32.187Z,23.73
2018-11-10T14:24:59.915Z,21.17
2018-11-10T14:27:27.675Z,23.00
2018-11-10T14:29:55.477Z,18.87
2018-11-10T14:32:23.314Z,20.87
2018-11-10T14:34:51.085Z,22.70
2018-11-10T14:37:18.798Z,22.10
2018-11-10T14:39:46.526Z,20.83
2018-11-10T14:42:14.383Z,20.70
2018-11-10T14:44:42.158Z,22.67
2018-11-10T14:47:09.902Z,24.90
2018-11-10T14:49:37.634Z,29.10
2018-11-10T14:52:05.706Z,30.13
2018-11-10T14:54:33.479Z,33.00
2018-11-10T14:57:01.239Z,34.47
2018-11-10T14:59:28.970Z,34.97
2018-11-10T15:01:56.725Z,39.17
2018-11-10T15:04:24.591Z,44.17
2018-11-10T15:06:52.331Z,37.43
2018-11-10T15:09:20.073Z,37.87
2018-11-10T15:11:47.957Z,41.23
2018-11-10T15:14:15.591Z,42.60
2018-11-10T15:16:43.322Z,52.50
2018-11-10T15:19:11.114Z,47.77
2018-11-10T15:27:06.115Z,46.87
2018-11-10T15:29:33.873Z,51.83
2018-11-10T15:32:01.627Z,86.67
2018-11-10T15:34:29.354Z,81.77
2018-11-10T15:36:57.212Z,74.57
2018-11-10T15:39:24.951Z,79.93
2018-11-10T15:41:52.683Z,86.67
2018-11-10T15:44:20.395Z,101.53
2018-11-10T15:46:48.132Z,99.90
2018-11-10T15:49:15.890Z,104.90
2018-11-10T15:51:43.683Z,102.57
2018-11-10T15:54:11.411Z,100.13
2018-11-10T15:56:39.215Z,98.47
2018-11-10T15:59:07.991Z,91.23
2018-11-10T16:01:35.730Z,92.27
2018-11-10T16:04:03.486Z,90.87
2018-11-10T16:06:31.202Z,83.53
2018-11-10T16:08:58.977Z,79.47
2018-11-10T16:11:26.702Z,76.37
2018-11-10T16:13:54.426Z,76.90
2018-11-10T16:16:22.190Z,90.20
2018-11-10T16:18:49.922Z,92.90
2018-11-10T16:21:17.638Z,104.30
2018-11-10T16:23:45.376Z,102.53
2018-11-10T16:26:13.094Z,98.03
2018-11-10T16:28:40.857Z,94.67
2018-11-10T16:31:08.710Z,92.47
2018-11-10T16:33:36.531Z,88.10
2018-11-10T16:36:04.329Z,92.37
2018-11-10T16:38:32.062Z,88.83
2018-11-10T16:40:59.815Z,100.97
2018-11-10T16:43:27.558Z,108.53
2018-11-10T16:45:55.287Z,99.90
2018-11-10T16:48:23.022Z,99.57
2018-11-10T16:50:50.909Z,117.70
2018-11-10T16:53:18.666Z,106.43
2018-11-10T16:55:49.714Z,114.47
2018-11-10T16:58:17.535Z,104.07
2018-11-10T17:00:45.289Z,107.13
2018-11-10T17:03:13.023Z,100.33
2018-11-10T17:05:40.739Z,95.43
2018-11-10T17:08:08.475Z,88.33
2018-11-10T17:10:36.195Z,82.37
2018-11-10T17:13:04.635Z,84.20
2018-11-10T17:15:32.422Z,82.37
2018-11-10T17:18:00.150Z,90.33
2018-11-10T17:20:27.896Z,72.63
2018-11-10T17:22:55.625Z,85.20
2018-11-10T17:25:23.355Z,76.47
2018-11-10T17:27:51.087Z,81.27
2018-11-10T17:30:20.218Z,79.37
2018-11-10T17:32:47.898Z,77.93
2018-11-10T17:35:15.711Z,79.63
2018-11-10T17:37:43.605Z,89.60
2018-11-10T17:40:12.223Z,88.50
2018-11-10T17:42:39.886Z,96.17
2018-11-10T17:45:09.743Z,98.90
2018-11-10T17:47:38.515Z,101.20
2018-11-10T17:50:08.097Z,96.27
2018-11-10T17:52:35.959Z,99.33
2018-11-10T17:55:03.747Z,93.83
2018-11-10T17:57:31.568Z,90.00
2018-11-10T17:59:59.270Z,89.17
2018-11-10T18:02:27.018Z,86.20
2018-11-10T18:04:54.789Z,70.00
2018-11-10T18:07:22.549Z,69.37
2018-11-10T18:09:50.326Z,72.47
2018-11-10T18:12:18.079Z,67.63
2018-11-10T18:14:45.806Z,63.57
2018-11-10T18:17:13.548Z,65.37
2018-11-10T18:19:41.305Z,62.47
2018-11-10T18:22:09.179Z,62.70
2018-11-10T18:24:36.930Z,69.17
2018-11-10T18:27:04.762Z,62.83
2018-11-10T18:29:32.502Z,66.90
2018-11-10T18:32:00.250Z,67.43
2018-11-10T18:34:28.031Z,74.67
2018-11-10T18:36:55.782Z,70.73
2018-11-10T18:39:27.708Z,62.67
2018-11-10T18:41:55.498Z,62.67
2018-11-10T18:44:23.279Z,66.77
2018-11-10T18:46:51.135Z,73.90
2018-11-10T18:49:18.862Z,70.30
2018-11-10T18:51:46.638Z,81.30
2018-11-10T18:54:14.546Z,83.10
2018-11-10T18:56:42.290Z,85.03
2018-11-10T18:59:10.067Z,75.17
2018-11-10T19:01:37.883Z,64.73
2018-11-10T19:04:05.852Z,67.00
2018-11-10T19:06:33.719Z,63.50
2018-11-10T19:09:01.471Z,66.20
2018-11-10T19:11:29.291Z,56.83
2018-11-10T19:13:57.035Z,60.03
2018-11-10T19:16:24.802Z,60.57
2018-11-10T19:18:52.604Z,52.93
2018-11-10T19:21:20.406Z,58.10
2018-11-10T19:23:48.363Z,55.27
2018-11-10T19:26:19.290Z,56.03
2018-11-10T19:28:51.776Z,58.70
2018-11-10T19:31:20.446Z,52.60
2018-11-10T19:33:48.221Z,48.93
2018-11-10T19:36:15.982Z,55.50
2018-11-10T19:38:43.770Z,54.57
2018-11-10T19:41:11.511Z,55.50
2018-11-10T19:43:39.283Z,52.13
2018-11-10T19:46:07.082Z,47.00
2018-11-10T19:48:34.843Z,45.17
2018-11-10T19:51:07.321Z,50.80
2018-11-10T19:53:34.894Z,49.53
2018-11-10T19:56:02.645Z,43.30
2018-11-10T19:58:30.385Z,45.20
2018-11-10T20:00:58.140Z,39.70
2018-11-10T20:03:25.883Z,48.40
2018-11-10T20:05:53.647Z,42.47
2018-11-10T20:08:21.391Z,47.00
2018-11-10T20:10:55.492Z,42.97
2018-11-10T20:13:27.028Z,42.57
2018-11-10T20:15:54.846Z,41.07
2018-11-10T20:18:22.607Z,46.80
2018-11-10T20:20:50.326Z,39.80
2018-11-10T20:23:18.065Z,39.43
2018-11-10T20:25:45.807Z,45.30
2018-11-10T20:28:13.683Z,40.67
2018-11-10T20:30:41.468Z,55.20
2018-11-10T20:33:09.199Z,46.87
2018-11-10T20:35:36.929Z,47.17
2018-11-10T20:38:04.819Z,47.27
2018-11-10T20:40:32.566Z,40.70
2018-11-10T20:43:00.311Z,46.70
2018-11-10T20:45:28.035Z,46.00
2018-11-10T20:47:55.784Z,47.60
2018-11-10T20:50:23.528Z,51.10
2018-11-10T20:52:51.286Z,51.30
2018-11-10T20:55:19.034Z,45.03
2018-11-10T20:57:46.763Z,47.73
2018-11-10T21:00:15.982Z,43.10
2018-11-10T21:02:44.023Z,46.57
2018-11-10T21:05:12.352Z,45.73
2018-11-10T21:07:40.122Z,46.43
2018-11-10T21:10:10.750Z,41.90
2018-11-10T21:12:38.544Z,42.17
2018-11-10T21:15:06.975Z,37.10
2018-11-10T21:17:34.796Z,37.77
2018-11-10T21:20:02.845Z,35.90
2018-11-10T21:22:30.530Z,34.00
2018-11-10T21:24:58.267Z,37.27
2018-11-10T21:27:25.994Z,33.90
2018-11-10T21:29:53.746Z,36.80
2018-11-10T21:32:21.471Z,37.47
2018-11-10T21:34:49.212Z,34.30
2018-11-10T21:37:16.944Z,34.07
2018-11-10T21:39:44.666Z,34.50
2018-11-10T21:42:12.399Z,31.50
2018-11-10T21:44:40.114Z,30.33
2018-11-10T21:47:07.838Z,33.10
2018-11-10T21:49:35.615Z,35.70
2018-11-10T21:52:03.363Z,37.73
2018-11-10T21:54:31.092Z,35.73
2018-11-10T21:56:58.873Z,35.33
2018-11-10T21:59:26.606Z,39.17
2018-11-10T22:01:54.326Z,35.30
2018-11-10T22:04:22.049Z,37.93
2018-11-10T22:06:49.863Z,35.13
2018-11-10T22:09:17.773Z,36.13
2018-11-10T22:11:45.401Z,32.10
2018-11-10T22:14:13.161Z,37.83
2018-11-10T22:16:40.891Z,36.07
2018-11-10T22:19:08.633Z,34.30
2018-11-10T22:21:36.386Z,32.73
2018-11-10T22:24:04.221Z,35.37
2018-11-10T22:26:31.968Z,39.03
2018-11-10T22:28:59.705Z,40.20
2018-11-10T22:31:27.486Z,41.50
2018-11-10T22:33:55.252Z,41.53
2018-11-10T22:36:23.037Z,44.50
2018-11-10T22:38:50.774Z,41.43
2018-11-10T22:41:18.521Z,35.60
2018-11-10T22:43:46.246Z,35.43
2018-11-10T22:46:14.333Z,33.43
2018-11-10T22:48:42.143Z,29.47
2018-11-10T22:51:09.882Z,28.03
2018-11-10T22:53:37.807Z,26.83
2018-11-10T22:56:05.733Z,29.30
2018-11-10T22:58:33.459Z,29.47
2018-11-10T23:01:06.234Z,26.40
2018-11-10T23:03:34.760Z,28.80
2018-11-10T23:06:02.549Z,28.20
2018-11-10T23:08:30.342Z,26.83
2018-11-10T23:10:58.094Z,26.37
2018-11-10T23:13:25.809Z,24.77
2018-11-10T23:15:53.558Z,28.43
2018-11-10T23:18:21.302Z,24.40
2018-11-10T23:20:49.018Z,25.30
2018-11-10T23:23:16.775Z,23.63
2018-11-10T23:25:44.518Z,22.63
2018-11-10T23:28:12.242Z,21.17
2018-11-10T23:30:39.979Z,22.93
2018-11-10T23:33:07.709Z,27.67
2018-11-10T23:35:35.435Z,24.27
2018-11-10T23:38:03.167Z,23.27
2018-11-10T23:40:30.923Z,22.13
2018-11-10T23:42:58.654Z,27.47
2018-11-10T23:45:26.435Z,21.70
2018-11-10T23:47:54.171Z,23.50
2018-11-10T23:50:21.908Z,22.80
2018-11-10T23:52:49.637Z,20.43
2018-11-10T23:55:17.490Z,22.43
2018-11-10T23:57:45.307Z,22.70
